Sunday, October 22, 2017, 8:34 PM EDT
Back to Local

KPTW, Pottstown Limerick Airport

Location: Royersford, PA, United States Lat: 40.233
Local Time: 8:34 PM EDT ( 0:34 GMT) Lon: -75.55
Time Zone: US/Eastern Elev: 291 ft

Show me the last for .
Show Decoded

2017-10-22 19:54 METAR KPTW 222354Z AUTO 00000KT 10SM CLR 14/09 A3035 RMK AO2 SLP275 T01390094
                 10228 20139 55001 =
2017-10-22 18:54 METAR KPTW 222254Z AUTO 00000KT 10SM CLR 16/09 A3034 RMK AO2 SLP274 T01560094 =
2017-10-22 17:54 METAR KPTW 222154Z AUTO 00000KT 10SM CLR 19/08 A3034 RMK AO2 SLP273 T01940083 =
2017-10-22 16:54 METAR KPTW 222054Z AUTO VRB05KT 10SM CLR 22/07 A3035 RMK AO2 SLP275 T02220072
                 56010 =
2017-10-22 15:54 METAR KPTW 221954Z AUTO VRB04KT 10SM CLR 23/07 A3036 RMK AO2 SLP277 T02280067 =
2017-10-22 14:54 METAR KPTW 221854Z AUTO VRB04KT 10SM CLR 22/07 A3036 RMK AO2 SLP279 T02220072 =
2017-10-22 13:54 METAR KPTW 221754Z AUTO VRB06KT 10SM CLR 22/08 A3038 RMK AO2 SLP285 T02220083
                 10222 20056 58014 =
2017-10-22 12:54 METAR KPTW 221654Z AUTO 00000KT 10SM CLR 21/09 A3040 RMK AO2 SLP291 T02110089 =
2017-10-22 11:54 METAR KPTW 221554Z AUTO VRB04KT 9SM CLR 19/08 A3041 RMK AO2 SLP296 T01940083 =
2017-10-22 10:54 METAR KPTW 221454Z AUTO 00000KT 8SM CLR 17/09 A3042 RMK AO2 SLP299 T01670094
                 50000 =
2017-10-22 09:54 METAR KPTW 221354Z AUTO 00000KT 8SM CLR 13/10 A3043 RMK AO2 SLP302 T01280100 =
2017-10-22 08:54 METAR KPTW 221254Z AUTO 00000KT 7SM CLR 09/09 A3043 RMK AO2 SLP303 T00940094 =
2017-10-22 07:54 METAR KPTW 221154Z AUTO 00000KT 6SM BR CLR 06/06 A3042 RMK AO2 SLP300 T00560056
                 10078 20050 51014 =
2017-10-22 06:54 METAR KPTW 221054Z AUTO 00000KT 6SM BR CLR 05/05 A3041 RMK AO2 SLP296 T00500050
                 =
2017-10-22 05:54 METAR KPTW 220954Z AUTO 00000KT 7SM CLR 06/06 A3040 RMK AO2 SLP292 T00560056 =
2017-10-22 04:54 METAR KPTW 220854Z AUTO 00000KT 7SM CLR 06/06 A3038 RMK AO2 SLP285 T00560056
                 53004 =
2017-10-22 03:54 METAR KPTW 220754Z AUTO 00000KT 7SM CLR 07/07 A3037 RMK AO2 SLP282 T00670067 =
2017-10-22 02:54 METAR KPTW 220654Z AUTO 00000KT 8SM CLR 07/07 A3038 RMK AO2 SLP284 T00720067 =
2017-10-22 01:54 METAR KPTW 220554Z AUTO 00000KT 9SM CLR 08/07 A3037 RMK AO2 SLP281 T00780072
                 10133 20078 58003 =
2017-10-22 00:54 METAR KPTW 220454Z AUTO 00000KT 9SM CLR 08/07 A3038 RMK AO2 SLP285 T00830072
                 402390033 =
2017-10-21 23:54 METAR KPTW 220354Z AUTO 00000KT 9SM CLR 09/07 A3038 RMK AO2 SLP286 T00890072 =
2017-10-21 22:54 METAR KPTW 220254Z AUTO 00000KT 8SM CLR 09/08 A3038 RMK AO2 SLP285 T00940078
                 51005 =
2017-10-21 21:54 METAR KPTW 220154Z AUTO 00000KT 9SM CLR 11/09 A3038 RMK AO2 SLP286 T01110089 =
2017-10-21 20:54 METAR KPTW 220054Z AUTO 00000KT 10SM CLR 11/09 A3038 RMK AO2 SLP285 T01110089 =

Support USWX by starting your Amazon purchase here.